This is the latest recevied weather packets stored in our database for station/object DL1SEW-6. If no packets are shown the sender has not sent any weather packets the latest 10 day(s).
| Time | Temp. | Humidity | Pressure | Rain* | Wind** | Luminosity | Snow |
|---|---|---|---|---|---|---|---|
| 1777974008 | 18.33° C | 59% | 1008.1 hPa | 0 mm | - | 360 W/m² | - |
| 1777973108 | 17.78° C | 61% | 1008.1 hPa | 0 mm | - | 512 W/m² | - |
| 1777972208 | 17.78° C | 61% | 1008.2 hPa | 0 mm | - | 513 W/m² | - |
| 1777971308 | 17.78° C | 61% | 1008.3 hPa | 0 mm | - | 431 W/m² | - |
| 1777970408 | 17.22° C | 62% | 1008.3 hPa | 0 mm | - | 695 W/m² | - |
| 1777969508 | 16.11° C | 66% | 1008.4 hPa | 0 mm | - | 657 W/m² | - |
| 1777968607 | 15.56° C | 65% | 1008.3 hPa | 0 mm | - | 390 W/m² | - |
| 1777967707 | 15.56° C | 67% | 1008.4 hPa | 0 mm | - | 394 W/m² | - |
| 1777966807 | 15.56° C | 66% | 1008.6 hPa | 0 mm | - | 311 W/m² | - |
| 1777965909 | 14.44° C | 73% | 1008.6 hPa | 0 mm | - | 577 W/m² | - |
| 1777965007 | 13.89° C | 76% | 1008.6 hPa | 0 mm | - | 300 W/m² | - |
| 1777964107 | 13.33° C | 76% | 1008.5 hPa | 0 mm | - | 148 W/m² | - |
| 1777963207 | 13.33° C | 77% | 1008.4 hPa | 0 mm | - | 184 W/m² | - |
| 1777962306 | 12.22° C | 80% | 1008.4 hPa | 0 mm | - | 257 W/m² | - |
| 1777961406 | 11.67° C | 82% | 1008.4 hPa | 0 mm | - | 192 W/m² | - |
| 1777960507 | 11.11° C | 82% | 1008.3 hPa | 0 mm | - | 163 W/m² | - |
| 1777959606 | 10.56° C | 83% | 1008.4 hPa | 0 mm | - | 98 W/m² | - |
| 1777958706 | 10.56° C | 84% | 1008.4 hPa | 0 mm | - | 56 W/m² | - |
| 1777957810 | 10.56° C | 84% | 1008.4 hPa | 0 mm | - | 52 W/m² | - |
| 1777956912 | 10° C | 84% | 1008.3 hPa | 0 mm | - | 44 W/m² | - |
| 1777956010 | 9.44° C | 84% | 1008.4 hPa | 0 mm | - | 34 W/m² | - |
| 1777955110 | 9.44° C | 82% | 1008.4 hPa | 0 mm | - | 18 W/m² | - |
| 1777954210 | 10° C | 81% | 1008.6 hPa | 0 mm | - | 11 W/m² | - |
| 1777953309 | 10° C | 81% | 1008.6 hPa | 0 mm | - | 0 W/m² | - |
| 1777952409 | 10.56° C | 80% | 1008.7 hPa | 0 mm | - | 0 W/m² | - |
* Rain latest hour (hover to see other rain measurements)
** Current wind speed in m/s (hover to see current wind gust speed)